sensor_id;sensor_type;location;lat;lon;timestamp;P1;durP1;ratioP1;P2;durP2;ratioP2
78728;SDS011;68252;44.944;20.218;2024-02-28T00:01:52;21.25;;;8.23;;
78728;SDS011;68252;44.944;20.218;2024-02-28T00:04:18;25.15;;;9.35;;
78728;SDS011;68252;44.944;20.218;2024-02-28T00:06:45;22.10;;;8.45;;
78728;SDS011;68252;44.944;20.218;2024-02-28T00:09:11;18.65;;;8.18;;
78728;SDS011;68252;44.944;20.218;2024-02-28T00:11:45;18.00;;;8.85;;
78728;SDS011;68252;44.944;20.218;2024-02-28T00:14:11;18.02;;;8.65;;
78728;SDS011;68252;44.944;20.218;2024-02-28T00:16:41;20.80;;;8.55;;
78728;SDS011;68252;44.944;20.218;2024-02-28T00:19:07;24.13;;;9.48;;
78728;SDS011;68252;44.944;20.218;2024-02-28T00:21:33;18.92;;;8.82;;
78728;SDS011;68252;44.944;20.218;2024-02-28T00:23:59;21.00;;;9.27;;
78728;SDS011;68252;44.944;20.218;2024-02-28T00:26:25;29.23;;;8.73;;
78728;SDS011;68252;44.944;20.218;2024-02-28T00:28:51;21.35;;;9.07;;
78728;SDS011;68252;44.944;20.218;2024-02-28T00:31:18;16.67;;;9.18;;
78728;SDS011;68252;44.944;20.218;2024-02-28T00:33:46;18.83;;;9.35;;
78728;SDS011;68252;44.944;20.218;2024-02-28T00:36:12;23.38;;;8.68;;
78728;SDS011;68252;44.944;20.218;2024-02-28T00:38:39;24.80;;;8.98;;
78728;SDS011;68252;44.944;20.218;2024-02-28T00:41:05;23.60;;;8.02;;
78728;SDS011;68252;44.944;20.218;2024-02-28T00:43:31;24.33;;;8.80;;
78728;SDS011;68252;44.944;20.218;2024-02-28T00:45:57;21.67;;;8.52;;
78728;SDS011;68252;44.944;20.218;2024-02-28T00:48:24;23.63;;;8.80;;
78728;SDS011;68252;44.944;20.218;2024-02-28T00:50:50;16.95;;;8.45;;
78728;SDS011;68252;44.944;20.218;2024-02-28T00:53:17;23.02;;;8.80;;
78728;SDS011;68252;44.944;20.218;2024-02-28T00:55:43;18.45;;;8.40;;
78728;SDS011;68252;44.944;20.218;2024-02-28T00:58:10;16.55;;;7.97;;
78728;SDS011;68252;44.944;20.218;2024-02-28T01:00:36;22.75;;;9.07;;
78728;SDS011;68252;44.944;20.218;2024-02-28T01:03:02;21.98;;;9.00;;
78728;SDS011;68252;44.944;20.218;2024-02-28T01:08:39;21.77;;;8.23;;
78728;SDS011;68252;44.944;20.218;2024-02-28T01:11:05;21.30;;;8.13;;
78728;SDS011;68252;44.944;20.218;2024-02-28T01:13:31;21.05;;;8.23;;
78728;SDS011;68252;44.944;20.218;2024-02-28T01:15:57;20.58;;;8.88;;
78728;SDS011;68252;44.944;20.218;2024-02-28T01:18:25;19.02;;;9.02;;
78728;SDS011;68252;44.944;20.218;2024-02-28T01:20:51;20.73;;;8.70;;
78728;SDS011;68252;44.944;20.218;2024-02-28T01:23:19;24.80;;;8.25;;
78728;SDS011;68252;44.944;20.218;2024-02-28T01:25:45;21.13;;;7.63;;
78728;SDS011;68252;44.944;20.218;2024-02-28T01:28:12;23.45;;;8.10;;
78728;SDS011;68252;44.944;20.218;2024-02-28T01:30:38;19.48;;;7.82;;
78728;SDS011;68252;44.944;20.218;2024-02-28T01:33:04;20.23;;;8.25;;
78728;SDS011;68252;44.944;20.218;2024-02-28T01:35:30;21.70;;;8.10;;
78728;SDS011;68252;44.944;20.218;2024-02-28T01:37:56;21.85;;;8.10;;
78728;SDS011;68252;44.944;20.218;2024-02-28T01:40:22;18.63;;;8.52;;
78728;SDS011;68252;44.944;20.218;2024-02-28T01:42:48;19.58;;;7.68;;
78728;SDS011;68252;44.944;20.218;2024-02-28T01:45:14;23.35;;;7.32;;
78728;SDS011;68252;44.944;20.218;2024-02-28T01:47:41;17.83;;;8.45;;
78728;SDS011;68252;44.944;20.218;2024-02-28T01:50:07;20.45;;;7.85;;
78728;SDS011;68252;44.944;20.218;2024-02-28T01:52:34;20.40;;;8.32;;
78728;SDS011;68252;44.944;20.218;2024-02-28T01:55:01;17.10;;;8.35;;
78728;SDS011;68252;44.944;20.218;2024-02-28T01:57:27;16.15;;;7.45;;
78728;SDS011;68252;44.944;20.218;2024-02-28T01:59:54;15.15;;;8.02;;
78728;SDS011;68252;44.944;20.218;2024-02-28T02:02:21;20.80;;;8.35;;
78728;SDS011;68252;44.944;20.218;2024-02-28T02:04:47;21.25;;;9.15;;
78728;SDS011;68252;44.944;20.218;2024-02-28T02:07:13;28.52;;;8.32;;
78728;SDS011;68252;44.944;20.218;2024-02-28T02:09:39;20.00;;;8.07;;
78728;SDS011;68252;44.944;20.218;2024-02-28T02:12:05;20.30;;;8.60;;
78728;SDS011;68252;44.944;20.218;2024-02-28T02:14:31;17.25;;;7.70;;
78728;SDS011;68252;44.944;20.218;2024-02-28T02:16:57;17.30;;;8.02;;
78728;SDS011;68252;44.944;20.218;2024-02-28T02:19:23;20.10;;;7.57;;
78728;SDS011;68252;44.944;20.218;2024-02-28T02:21:52;18.30;;;7.72;;
78728;SDS011;68252;44.944;20.218;2024-02-28T02:24:18;19.15;;;8.02;;
78728;SDS011;68252;44.944;20.218;2024-02-28T02:26:44;19.52;;;7.93;;
78728;SDS011;68252;44.944;20.218;2024-02-28T02:29:11;19.52;;;8.00;;
78728;SDS011;68252;44.944;20.218;2024-02-28T02:31:38;32.40;;;9.63;;
78728;SDS011;68252;44.944;20.218;2024-02-28T02:34:05;19.45;;;8.40;;
78728;SDS011;68252;44.944;20.218;2024-02-28T02:36:32;33.10;;;8.45;;
78728;SDS011;68252;44.944;20.218;2024-02-28T02:38:58;18.92;;;8.25;;
78728;SDS011;68252;44.944;20.218;2024-02-28T02:41:24;19.42;;;7.88;;
78728;SDS011;68252;44.944;20.218;2024-02-28T02:43:50;17.33;;;8.40;;
78728;SDS011;68252;44.944;20.218;2024-02-28T02:46:17;21.63;;;8.02;;
78728;SDS011;68252;44.944;20.218;2024-02-28T02:48:43;27.10;;;8.40;;
78728;SDS011;68252;44.944;20.218;2024-02-28T02:51:09;21.55;;;9.20;;
78728;SDS011;68252;44.944;20.218;2024-02-28T02:53:35;17.15;;;8.20;;
78728;SDS011;68252;44.944;20.218;2024-02-28T02:56:03;31.67;;;9.80;;
78728;SDS011;68252;44.944;20.218;2024-02-28T02:58:29;21.17;;;9.13;;
78728;SDS011;68252;44.944;20.218;2024-02-28T03:00:55;28.73;;;9.80;;
78728;SDS011;68252;44.944;20.218;2024-02-28T03:03:21;19.35;;;7.78;;
78728;SDS011;68252;44.944;20.218;2024-02-28T03:05:47;22.17;;;8.32;;
78728;SDS011;68252;44.944;20.218;2024-02-28T03:08:14;19.60;;;8.27;;
78728;SDS011;68252;44.944;20.218;2024-02-28T03:10:40;19.65;;;9.05;;
78728;SDS011;68252;44.944;20.218;2024-02-28T03:13:07;20.98;;;8.68;;
78728;SDS011;68252;44.944;20.218;2024-02-28T03:15:33;22.77;;;9.32;;
78728;SDS011;68252;44.944;20.218;2024-02-28T03:17:59;27.77;;;8.68;;
78728;SDS011;68252;44.944;20.218;2024-02-28T03:20:25;22.92;;;8.55;;
78728;SDS011;68252;44.944;20.218;2024-02-28T03:22:51;18.50;;;8.50;;
78728;SDS011;68252;44.944;20.218;2024-02-28T03:25:17;18.00;;;8.27;;
78728;SDS011;68252;44.944;20.218;2024-02-28T03:27:43;20.10;;;8.88;;
78728;SDS011;68252;44.944;20.218;2024-02-28T03:30:09;21.38;;;8.48;;
78728;SDS011;68252;44.944;20.218;2024-02-28T03:32:35;20.70;;;7.97;;
78728;SDS011;68252;44.944;20.218;2024-02-28T03:35:02;16.05;;;8.20;;
78728;SDS011;68252;44.944;20.218;2024-02-28T03:37:29;20.73;;;8.18;;
78728;SDS011;68252;44.944;20.218;2024-02-28T03:39:55;21.20;;;8.52;;
78728;SDS011;68252;44.944;20.218;2024-02-28T03:42:21;18.58;;;7.80;;
78728;SDS011;68252;44.944;20.218;2024-02-28T03:44:47;17.58;;;8.18;;
78728;SDS011;68252;44.944;20.218;2024-02-28T03:47:14;21.02;;;8.40;;
78728;SDS011;68252;44.944;20.218;2024-02-28T03:49:40;19.45;;;7.72;;
78728;SDS011;68252;44.944;20.218;2024-02-28T03:52:06;19.02;;;7.72;;
78728;SDS011;68252;44.944;20.218;2024-02-28T03:54:32;21.80;;;9.88;;
78728;SDS011;68252;44.944;20.218;2024-02-28T03:56:58;19.13;;;8.70;;
78728;SDS011;68252;44.944;20.218;2024-02-28T03:59:24;23.33;;;8.15;;
78728;SDS011;68252;44.944;20.218;2024-02-28T04:01:50;24.77;;;9.27;;
78728;SDS011;68252;44.944;20.218;2024-02-28T04:04:16;22.13;;;8.77;;
78728;SDS011;68252;44.944;20.218;2024-02-28T04:06:43;23.70;;;8.57;;
78728;SDS011;68252;44.944;20.218;2024-02-28T04:09:09;25.80;;;9.63;;
78728;SDS011;68252;44.944;20.218;2024-02-28T04:11:36;27.83;;;8.63;;
78728;SDS011;68252;44.944;20.218;2024-02-28T04:14:03;20.45;;;8.40;;
78728;SDS011;68252;44.944;20.218;2024-02-28T04:16:29;25.75;;;9.70;;
78728;SDS011;68252;44.944;20.218;2024-02-28T04:19:07;20.80;;;9.15;;
78728;SDS011;68252;44.944;20.218;2024-02-28T04:21:33;18.88;;;9.13;;
78728;SDS011;68252;44.944;20.218;2024-02-28T04:23:59;19.67;;;8.35;;
78728;SDS011;68252;44.944;20.218;2024-02-28T04:26:25;21.27;;;8.60;;
78728;SDS011;68252;44.944;20.218;2024-02-28T04:28:51;19.17;;;8.45;;
78728;SDS011;68252;44.944;20.218;2024-02-28T04:31:17;26.75;;;9.38;;
78728;SDS011;68252;44.944;20.218;2024-02-28T04:33:43;21.45;;;8.55;;
78728;SDS011;68252;44.944;20.218;2024-02-28T04:36:09;20.40;;;8.32;;
78728;SDS011;68252;44.944;20.218;2024-02-28T04:38:36;26.98;;;9.10;;
78728;SDS011;68252;44.944;20.218;2024-02-28T04:41:02;22.33;;;9.07;;
78728;SDS011;68252;44.944;20.218;2024-02-28T04:43:28;18.83;;;9.02;;
78728;SDS011;68252;44.944;20.218;2024-02-28T04:45:54;26.33;;;9.45;;
78728;SDS011;68252;44.944;20.218;2024-02-28T04:48:20;19.23;;;8.32;;
78728;SDS011;68252;44.944;20.218;2024-02-28T04:50:46;23.27;;;8.57;;
78728;SDS011;68252;44.944;20.218;2024-02-28T04:53:13;24.50;;;9.80;;
78728;SDS011;68252;44.944;20.218;2024-02-28T04:55:39;24.08;;;9.13;;
78728;SDS011;68252;44.944;20.218;2024-02-28T04:58:05;25.40;;;8.75;;
78728;SDS011;68252;44.944;20.218;2024-02-28T05:00:31;22.27;;;9.35;;
78728;SDS011;68252;44.944;20.218;2024-02-28T05:02:57;21.30;;;9.23;;
78728;SDS011;68252;44.944;20.218;2024-02-28T05:05:23;19.88;;;9.32;;
78728;SDS011;68252;44.944;20.218;2024-02-28T05:07:49;28.15;;;9.25;;
78728;SDS011;68252;44.944;20.218;2024-02-28T05:10:16;28.48;;;8.88;;
78728;SDS011;68252;44.944;20.218;2024-02-28T05:12:42;23.90;;;8.98;;
78728;SDS011;68252;44.944;20.218;2024-02-28T05:15:08;22.40;;;9.20;;
78728;SDS011;68252;44.944;20.218;2024-02-28T05:17:34;34.53;;;9.90;;
78728;SDS011;68252;44.944;20.218;2024-02-28T05:20:00;26.65;;;9.10;;
78728;SDS011;68252;44.944;20.218;2024-02-28T05:22:27;24.52;;;9.50;;
78728;SDS011;68252;44.944;20.218;2024-02-28T05:24:53;25.63;;;11.07;;
78728;SDS011;68252;44.944;20.218;2024-02-28T05:27:19;24.50;;;10.35;;
78728;SDS011;68252;44.944;20.218;2024-02-28T05:29:45;21.30;;;9.07;;
78728;SDS011;68252;44.944;20.218;2024-02-28T05:32:11;22.42;;;10.18;;
78728;SDS011;68252;44.944;20.218;2024-02-28T05:34:37;21.73;;;10.38;;
78728;SDS011;68252;44.944;20.218;2024-02-28T05:37:03;22.75;;;9.52;;
78728;SDS011;68252;44.944;20.218;2024-02-28T05:39:29;79.05;;;15.35;;
78728;SDS011;68252;44.944;20.218;2024-02-28T05:41:56;26.85;;;10.80;;
78728;SDS011;68252;44.944;20.218;2024-02-28T05:44:24;25.63;;;10.35;;
78728;SDS011;68252;44.944;20.218;2024-02-28T05:46:50;36.10;;;12.85;;
78728;SDS011;68252;44.944;20.218;2024-02-28T05:49:16;20.98;;;9.18;;
78728;SDS011;68252;44.944;20.218;2024-02-28T05:51:45;25.33;;;10.27;;
78728;SDS011;68252;44.944;20.218;2024-02-28T05:54:14;34.28;;;10.25;;
78728;SDS011;68252;44.944;20.218;2024-02-28T05:56:40;29.00;;;11.52;;
78728;SDS011;68252;44.944;20.218;2024-02-28T05:59:06;24.65;;;12.05;;
78728;SDS011;68252;44.944;20.218;2024-02-28T06:01:32;30.27;;;11.70;;
78728;SDS011;68252;44.944;20.218;2024-02-28T06:03:58;28.05;;;11.25;;
78728;SDS011;68252;44.944;20.218;2024-02-28T06:06:24;29.90;;;10.23;;
78728;SDS011;68252;44.944;20.218;2024-02-28T06:08:51;23.92;;;9.13;;
78728;SDS011;68252;44.944;20.218;2024-02-28T06:11:17;26.50;;;9.30;;
78728;SDS011;68252;44.944;20.218;2024-02-28T06:13:43;31.50;;;9.45;;
78728;SDS011;68252;44.944;20.218;2024-02-28T06:16:15;37.78;;;9.90;;
78728;SDS011;68252;44.944;20.218;2024-02-28T06:18:42;33.35;;;9.38;;
78728;SDS011;68252;44.944;20.218;2024-02-28T06:21:08;28.77;;;9.45;;
78728;SDS011;68252;44.944;20.218;2024-02-28T06:23:34;25.08;;;9.85;;
78728;SDS011;68252;44.944;20.218;2024-02-28T06:26:00;25.17;;;9.45;;
78728;SDS011;68252;44.944;20.218;2024-02-28T06:28:27;28.13;;;10.40;;
78728;SDS011;68252;44.944;20.218;2024-02-28T06:30:53;32.88;;;10.27;;
78728;SDS011;68252;44.944;20.218;2024-02-28T06:33:19;35.03;;;10.25;;
78728;SDS011;68252;44.944;20.218;2024-02-28T06:35:45;30.75;;;10.57;;
78728;SDS011;68252;44.944;20.218;2024-02-28T06:38:11;25.65;;;10.38;;
78728;SDS011;68252;44.944;20.218;2024-02-28T06:40:37;29.67;;;10.13;;
78728;SDS011;68252;44.944;20.218;2024-02-28T06:43:03;35.47;;;9.27;;
78728;SDS011;68252;44.944;20.218;2024-02-28T06:45:30;39.55;;;11.07;;
78728;SDS011;68252;44.944;20.218;2024-02-28T06:47:56;26.70;;;9.85;;
78728;SDS011;68252;44.944;20.218;2024-02-28T06:50:23;31.63;;;10.07;;
78728;SDS011;68252;44.944;20.218;2024-02-28T06:52:49;28.02;;;10.05;;
78728;SDS011;68252;44.944;20.218;2024-02-28T06:55:15;29.33;;;9.80;;
78728;SDS011;68252;44.944;20.218;2024-02-28T06:57:41;36.42;;;10.63;;
78728;SDS011;68252;44.944;20.218;2024-02-28T07:00:08;25.15;;;10.85;;
78728;SDS011;68252;44.944;20.218;2024-02-28T07:02:35;26.10;;;9.85;;
78728;SDS011;68252;44.944;20.218;2024-02-28T07:05:01;29.63;;;9.98;;
78728;SDS011;68252;44.944;20.218;2024-02-28T07:07:29;23.02;;;10.25;;
78728;SDS011;68252;44.944;20.218;2024-02-28T07:09:55;29.55;;;9.75;;
78728;SDS011;68252;44.944;20.218;2024-02-28T07:12:21;27.27;;;9.90;;
78728;SDS011;68252;44.944;20.218;2024-02-28T07:14:47;25.63;;;9.90;;
78728;SDS011;68252;44.944;20.218;2024-02-28T07:17:14;42.30;;;10.02;;
78728;SDS011;68252;44.944;20.218;2024-02-28T07:19:40;21.25;;;9.40;;
78728;SDS011;68252;44.944;20.218;2024-02-28T07:22:06;21.17;;;9.48;;
78728;SDS011;68252;44.944;20.218;2024-02-28T07:24:32;24.02;;;10.23;;
78728;SDS011;68252;44.944;20.218;2024-02-28T07:26:58;26.13;;;10.73;;
78728;SDS011;68252;44.944;20.218;2024-02-28T07:29:24;19.05;;;9.60;;
78728;SDS011;68252;44.944;20.218;2024-02-28T07:31:50;18.98;;;9.07;;
78728;SDS011;68252;44.944;20.218;2024-02-28T07:34:16;22.25;;;8.88;;
78728;SDS011;68252;44.944;20.218;2024-02-28T07:36:42;25.08;;;9.32;;
78728;SDS011;68252;44.944;20.218;2024-02-28T07:39:08;22.70;;;10.18;;
78728;SDS011;68252;44.944;20.218;2024-02-28T07:41:41;31.05;;;9.80;;
78728;SDS011;68252;44.944;20.218;2024-02-28T07:46:33;27.08;;;9.32;;
78728;SDS011;68252;44.944;20.218;2024-02-28T07:48:59;42.05;;;10.85;;
78728;SDS011;68252;44.944;20.218;2024-02-28T07:51:26;43.05;;;10.07;;
78728;SDS011;68252;44.944;20.218;2024-02-28T07:53:52;21.35;;;9.82;;
78728;SDS011;68252;44.944;20.218;2024-02-28T07:56:18;20.33;;;8.73;;
78728;SDS011;68252;44.944;20.218;2024-02-28T07:58:45;26.77;;;10.40;;
78728;SDS011;68252;44.944;20.218;2024-02-28T08:01:11;20.80;;;9.18;;
78728;SDS011;68252;44.944;20.218;2024-02-28T08:03:37;24.02;;;8.48;;
78728;SDS011;68252;44.944;20.218;2024-02-28T08:06:03;28.35;;;8.52;;
78728;SDS011;68252;44.944;20.218;2024-02-28T08:08:31;21.15;;;8.60;;
78728;SDS011;68252;44.944;20.218;2024-02-28T08:10:57;19.90;;;9.25;;
78728;SDS011;68252;44.944;20.218;2024-02-28T08:13:24;36.40;;;11.30;;
78728;SDS011;68252;44.944;20.218;2024-02-28T08:15:53;25.20;;;9.60;;
78728;SDS011;68252;44.944;20.218;2024-02-28T08:18:19;32.08;;;9.77;;
78728;SDS011;68252;44.944;20.218;2024-02-28T08:20:45;29.23;;;8.77;;
78728;SDS011;68252;44.944;20.218;2024-02-28T08:23:11;28.13;;;9.50;;
78728;SDS011;68252;44.944;20.218;2024-02-28T08:25:37;31.98;;;9.20;;
78728;SDS011;68252;44.944;20.218;2024-02-28T08:28:04;31.90;;;10.38;;
78728;SDS011;68252;44.944;20.218;2024-02-28T08:30:30;32.47;;;10.70;;
78728;SDS011;68252;44.944;20.218;2024-02-28T08:32:56;46.17;;;9.35;;
78728;SDS011;68252;44.944;20.218;2024-02-28T08:35:23;30.85;;;9.95;;
78728;SDS011;68252;44.944;20.218;2024-02-28T08:37:49;22.00;;;9.77;;
78728;SDS011;68252;44.944;20.218;2024-02-28T08:40:15;28.02;;;8.93;;
78728;SDS011;68252;44.944;20.218;2024-02-28T08:42:41;37.88;;;9.32;;
78728;SDS011;68252;44.944;20.218;2024-02-28T08:45:08;23.15;;;9.15;;
78728;SDS011;68252;44.944;20.218;2024-02-28T08:47:34;30.50;;;9.93;;
78728;SDS011;68252;44.944;20.218;2024-02-28T08:50:00;29.63;;;9.23;;
78728;SDS011;68252;44.944;20.218;2024-02-28T08:52:26;26.98;;;9.10;;
78728;SDS011;68252;44.944;20.218;2024-02-28T08:54:52;26.38;;;8.40;;
78728;SDS011;68252;44.944;20.218;2024-02-28T08:57:18;20.83;;;10.02;;
78728;SDS011;68252;44.944;20.218;2024-02-28T08:59:47;18.83;;;9.50;;
78728;SDS011;68252;44.944;20.218;2024-02-28T09:02:13;28.73;;;8.75;;
78728;SDS011;68252;44.944;20.218;2024-02-28T09:04:39;35.80;;;9.48;;
78728;SDS011;68252;44.944;20.218;2024-02-28T09:07:05;34.58;;;9.32;;
78728;SDS011;68252;44.944;20.218;2024-02-28T09:09:32;23.42;;;8.63;;
78728;SDS011;68252;44.944;20.218;2024-02-28T09:12:02;36.15;;;8.30;;
78728;SDS011;68252;44.944;20.218;2024-02-28T09:14:29;31.05;;;8.45;;
78728;SDS011;68252;44.944;20.218;2024-02-28T09:16:55;21.83;;;8.90;;
78728;SDS011;68252;44.944;20.218;2024-02-28T09:19:28;30.02;;;8.52;;
78728;SDS011;68252;44.944;20.218;2024-02-28T09:21:54;18.48;;;9.50;;
78728;SDS011;68252;44.944;20.218;2024-02-28T09:24:20;28.85;;;10.18;;
78728;SDS011;68252;44.944;20.218;2024-02-28T09:26:46;21.45;;;9.85;;
78728;SDS011;68252;44.944;20.218;2024-02-28T09:29:12;25.13;;;7.45;;
78728;SDS011;68252;44.944;20.218;2024-02-28T09:31:38;31.60;;;9.00;;
78728;SDS011;68252;44.944;20.218;2024-02-28T09:34:04;21.73;;;8.27;;
78728;SDS011;68252;44.944;20.218;2024-02-28T09:36:34;25.65;;;8.73;;
78728;SDS011;68252;44.944;20.218;2024-02-28T09:39:05;26.65;;;8.15;;
78728;SDS011;68252;44.944;20.218;2024-02-28T09:41:31;21.30;;;9.32;;
78728;SDS011;68252;44.944;20.218;2024-02-28T09:43:57;45.85;;;9.30;;
78728;SDS011;68252;44.944;20.218;2024-02-28T09:46:23;38.45;;;8.77;;
78728;SDS011;68252;44.944;20.218;2024-02-28T09:48:50;21.23;;;8.70;;
78728;SDS011;68252;44.944;20.218;2024-02-28T09:51:17;25.13;;;9.10;;
78728;SDS011;68252;44.944;20.218;2024-02-28T09:53:44;31.23;;;9.60;;
78728;SDS011;68252;44.944;20.218;2024-02-28T09:56:10;22.23;;;8.60;;
78728;SDS011;68252;44.944;20.218;2024-02-28T09:58:36;42.03;;;10.35;;
78728;SDS011;68252;44.944;20.218;2024-02-28T10:01:04;26.45;;;8.75;;
78728;SDS011;68252;44.944;20.218;2024-02-28T10:03:30;29.45;;;8.68;;
78728;SDS011;68252;44.944;20.218;2024-02-28T10:05:57;34.85;;;8.05;;
78728;SDS011;68252;44.944;20.218;2024-02-28T10:08:23;28.98;;;7.90;;
78728;SDS011;68252;44.944;20.218;2024-02-28T10:10:49;27.92;;;8.18;;
78728;SDS011;68252;44.944;20.218;2024-02-28T10:13:20;29.83;;;7.93;;
78728;SDS011;68252;44.944;20.218;2024-02-28T10:15:49;23.52;;;9.70;;
78728;SDS011;68252;44.944;20.218;2024-02-28T10:18:15;25.42;;;8.43;;
78728;SDS011;68252;44.944;20.218;2024-02-28T10:20:42;21.08;;;8.25;;
78728;SDS011;68252;44.944;20.218;2024-02-28T10:23:08;30.38;;;8.38;;
78728;SDS011;68252;44.944;20.218;2024-02-28T10:25:44;20.60;;;7.80;;
78728;SDS011;68252;44.944;20.218;2024-02-28T10:28:10;31.55;;;8.77;;
78728;SDS011;68252;44.944;20.218;2024-02-28T10:30:40;33.35;;;8.52;;
78728;SDS011;68252;44.944;20.218;2024-02-28T10:33:10;33.58;;;8.98;;
78728;SDS011;68252;44.944;20.218;2024-02-28T10:35:36;32.50;;;9.50;;
78728;SDS011;68252;44.944;20.218;2024-02-28T10:38:03;28.17;;;9.27;;
78728;SDS011;68252;44.944;20.218;2024-02-28T10:40:29;23.00;;;7.85;;
78728;SDS011;68252;44.944;20.218;2024-02-28T10:42:55;24.17;;;8.32;;
78728;SDS011;68252;44.944;20.218;2024-02-28T10:45:22;41.10;;;8.05;;
78728;SDS011;68252;44.944;20.218;2024-02-28T10:47:50;19.58;;;8.68;;
78728;SDS011;68252;44.944;20.218;2024-02-28T10:50:17;23.27;;;9.07;;
78728;SDS011;68252;44.944;20.218;2024-02-28T10:52:43;24.40;;;8.38;;
78728;SDS011;68252;44.944;20.218;2024-02-28T10:55:17;20.15;;;8.10;;
78728;SDS011;68252;44.944;20.218;2024-02-28T10:57:47;27.17;;;8.70;;
78728;SDS011;68252;44.944;20.218;2024-02-28T11:00:14;25.35;;;8.15;;
78728;SDS011;68252;44.944;20.218;2024-02-28T11:02:42;18.98;;;7.93;;
78728;SDS011;68252;44.944;20.218;2024-02-28T11:05:08;32.63;;;8.00;;
78728;SDS011;68252;44.944;20.218;2024-02-28T11:07:34;18.15;;;7.70;;
78728;SDS011;68252;44.944;20.218;2024-02-28T11:10:05;24.75;;;7.63;;
78728;SDS011;68252;44.944;20.218;2024-02-28T11:12:31;25.63;;;7.97;;
78728;SDS011;68252;44.944;20.218;2024-02-28T11:15:00;29.17;;;8.63;;
78728;SDS011;68252;44.944;20.218;2024-02-28T11:17:28;38.70;;;8.02;;
78728;SDS011;68252;44.944;20.218;2024-02-28T11:19:54;35.05;;;11.45;;
78728;SDS011;68252;44.944;20.218;2024-02-28T11:22:21;17.75;;;7.72;;
78728;SDS011;68252;44.944;20.218;2024-02-28T11:24:47;34.15;;;7.65;;
78728;SDS011;68252;44.944;20.218;2024-02-28T11:27:16;23.92;;;7.68;;
78728;SDS011;68252;44.944;20.218;2024-02-28T11:29:42;30.95;;;8.38;;
78728;SDS011;68252;44.944;20.218;2024-02-28T11:34:38;18.88;;;7.68;;
78728;SDS011;68252;44.944;20.218;2024-02-28T11:37:05;31.52;;;7.32;;
78728;SDS011;68252;44.944;20.218;2024-02-28T11:39:32;27.42;;;8.52;;
78728;SDS011;68252;44.944;20.218;2024-02-28T11:42:08;31.52;;;8.48;;
78728;SDS011;68252;44.944;20.218;2024-02-28T11:44:34;18.48;;;8.60;;
78728;SDS011;68252;44.944;20.218;2024-02-28T11:47:01;28.17;;;7.88;;
78728;SDS011;68252;44.944;20.218;2024-02-28T11:49:27;23.77;;;7.40;;
78728;SDS011;68252;44.944;20.218;2024-02-28T11:51:54;23.10;;;7.70;;
78728;SDS011;68252;44.944;20.218;2024-02-28T11:54:20;24.25;;;7.85;;
78728;SDS011;68252;44.944;20.218;2024-02-28T11:56:46;26.17;;;7.55;;
78728;SDS011;68252;44.944;20.218;2024-02-28T11:59:12;19.50;;;8.15;;
78728;SDS011;68252;44.944;20.218;2024-02-28T12:01:39;20.20;;;7.22;;
78728;SDS011;68252;44.944;20.218;2024-02-28T12:04:06;39.08;;;7.60;;
78728;SDS011;68252;44.944;20.218;2024-02-28T12:06:35;21.85;;;7.82;;
78728;SDS011;68252;44.944;20.218;2024-02-28T12:09:02;21.80;;;8.10;;
78728;SDS011;68252;44.944;20.218;2024-02-28T12:11:29;21.65;;;8.02;;
78728;SDS011;68252;44.944;20.218;2024-02-28T12:13:55;32.10;;;9.10;;
78728;SDS011;68252;44.944;20.218;2024-02-28T12:16:22;27.33;;;7.13;;
78728;SDS011;68252;44.944;20.218;2024-02-28T12:18:48;34.05;;;7.80;;
78728;SDS011;68252;44.944;20.218;2024-02-28T12:21:14;23.73;;;7.35;;
78728;SDS011;68252;44.944;20.218;2024-02-28T12:23:41;16.05;;;6.82;;
78728;SDS011;68252;44.944;20.218;2024-02-28T12:26:07;19.15;;;6.72;;
78728;SDS011;68252;44.944;20.218;2024-02-28T12:28:33;22.33;;;6.72;;
78728;SDS011;68252;44.944;20.218;2024-02-28T12:30:59;33.70;;;6.93;;
78728;SDS011;68252;44.944;20.218;2024-02-28T12:33:25;27.52;;;8.40;;
78728;SDS011;68252;44.944;20.218;2024-02-28T12:35:51;35.95;;;6.85;;
78728;SDS011;68252;44.944;20.218;2024-02-28T12:38:17;30.55;;;6.90;;
78728;SDS011;68252;44.944;20.218;2024-02-28T12:40:45;27.05;;;7.03;;
78728;SDS011;68252;44.944;20.218;2024-02-28T12:43:11;18.52;;;6.05;;
78728;SDS011;68252;44.944;20.218;2024-02-28T12:45:37;22.25;;;6.22;;
78728;SDS011;68252;44.944;20.218;2024-02-28T12:48:03;19.85;;;6.35;;
78728;SDS011;68252;44.944;20.218;2024-02-28T12:50:31;19.90;;;6.88;;
78728;SDS011;68252;44.944;20.218;2024-02-28T12:52:58;24.48;;;7.13;;
78728;SDS011;68252;44.944;20.218;2024-02-28T12:55:25;22.42;;;7.03;;
78728;SDS011;68252;44.944;20.218;2024-02-28T12:57:51;29.38;;;7.38;;
78728;SDS011;68252;44.944;20.218;2024-02-28T13:00:17;17.67;;;6.32;;
78728;SDS011;68252;44.944;20.218;2024-02-28T13:02:44;23.23;;;7.53;;
78728;SDS011;68252;44.944;20.218;2024-02-28T13:05:13;19.02;;;6.22;;
78728;SDS011;68252;44.944;20.218;2024-02-28T13:07:39;16.73;;;6.55;;
78728;SDS011;68252;44.944;20.218;2024-02-28T13:10:06;26.33;;;7.57;;
78728;SDS011;68252;44.944;20.218;2024-02-28T13:12:34;21.40;;;7.43;;
78728;SDS011;68252;44.944;20.218;2024-02-28T13:15:00;32.03;;;8.68;;
78728;SDS011;68252;44.944;20.218;2024-02-28T13:17:26;25.58;;;7.50;;
78728;SDS011;68252;44.944;20.218;2024-02-28T13:19:52;21.27;;;6.75;;
78728;SDS011;68252;44.944;20.218;2024-02-28T13:22:18;37.80;;;8.48;;
78728;SDS011;68252;44.944;20.218;2024-02-28T13:24:44;22.35;;;8.50;;
78728;SDS011;68252;44.944;20.218;2024-02-28T13:27:10;29.98;;;7.97;;
78728;SDS011;68252;44.944;20.218;2024-02-28T13:29:36;18.50;;;6.78;;
78728;SDS011;68252;44.944;20.218;2024-02-28T13:32:02;31.80;;;7.85;;
78728;SDS011;68252;44.944;20.218;2024-02-28T13:34:28;25.58;;;7.65;;
78728;SDS011;68252;44.944;20.218;2024-02-28T13:36:55;22.90;;;7.38;;
78728;SDS011;68252;44.944;20.218;2024-02-28T13:39:21;19.02;;;7.43;;
78728;SDS011;68252;44.944;20.218;2024-02-28T13:41:49;18.60;;;6.90;;
78728;SDS011;68252;44.944;20.218;2024-02-28T13:44:17;22.10;;;7.35;;
78728;SDS011;68252;44.944;20.218;2024-02-28T13:46:44;18.15;;;7.75;;
78728;SDS011;68252;44.944;20.218;2024-02-28T13:49:10;21.73;;;6.47;;
78728;SDS011;68252;44.944;20.218;2024-02-28T13:51:36;20.52;;;6.90;;
78728;SDS011;68252;44.944;20.218;2024-02-28T13:54:02;20.60;;;6.47;;
78728;SDS011;68252;44.944;20.218;2024-02-28T13:56:28;20.17;;;6.38;;
78728;SDS011;68252;44.944;20.218;2024-02-28T13:58:56;16.27;;;6.68;;
78728;SDS011;68252;44.944;20.218;2024-02-28T14:01:22;15.93;;;6.75;;
78728;SDS011;68252;44.944;20.218;2024-02-28T14:03:48;23.83;;;6.72;;
78728;SDS011;68252;44.944;20.218;2024-02-28T14:06:14;18.83;;;6.78;;
78728;SDS011;68252;44.944;20.218;2024-02-28T14:08:40;17.05;;;7.40;;
78728;SDS011;68252;44.944;20.218;2024-02-28T14:11:06;23.63;;;7.32;;
78728;SDS011;68252;44.944;20.218;2024-02-28T14:13:32;15.32;;;7.93;;
78728;SDS011;68252;44.944;20.218;2024-02-28T14:15:58;27.63;;;7.65;;
78728;SDS011;68252;44.944;20.218;2024-02-28T14:18:24;31.55;;;6.65;;
78728;SDS011;68252;44.944;20.218;2024-02-28T14:20:50;24.65;;;6.97;;
78728;SDS011;68252;44.944;20.218;2024-02-28T14:23:17;14.57;;;6.32;;
78728;SDS011;68252;44.944;20.218;2024-02-28T14:25:43;30.65;;;7.25;;